Johnson, New York
Current Conditions -  °F | °C
As of 10:53 AM on Saturday 25 Oct 2014 (Local Time) from KFWN Reporting Station
Clear Clear  
Wind Chill: 60°   Ceiling: Unl
Heat Index: 60°   Visibility: 10mi
Dew Point: 41°   Wind: 5mph
Humidity: 49%   Direction: 220°SW
Pressure: 29.84"   Gusts: NA
Location:  41.37°N, 74.51°W
Report Text: KFWN 251453Z AUTO 22004KT 10SM CLR 16/05 A2984 RMK AO2 SLP102 T01560050 58016
Loading
Personal Weather Stations






























Interactive Weather Map
Tropical Storm Tracking
New forecast layout! Learn more

10-Day Weather Forecast

Advertisements
Track Severe Weather on mobile